Time;durP1;ratioP1;P1;durP2;ratioP2;P2;SDS_P1;SDS_P2;PMS_P1;PMS_P2;Temp;Humidity;BMP_temperature;BMP_pressure;BME280_temperature;BME280_humidity;BME280_pressure;Samples;Min_cycle;Max_cycle;Signal;HPM_P1;HPM_P2
2023/03/06 00:02:25;;;;;;;2.30;1.40;;;18.60;38.00;;;;;;4987956;28;20439;-65
2023/03/06 00:04:52;;;;;;;1.40;1.30;;;18.60;38.00;;;;;;5003678;28;20661;-65
2023/03/06 00:07:17;;;;;;;1.53;1.43;;;18.60;38.00;;;;;;4994284;28;20242;-65
2023/03/06 00:09:43;;;;;;;1.50;1.40;;;18.60;38.00;;;;;;4995384;28;20428;-66
2023/03/06 00:12:09;;;;;;;1.50;1.40;;;18.60;38.00;;;;;;4999068;28;20604;-65
2023/03/06 00:14:34;;;;;;;1.30;1.20;;;18.60;38.00;;;;;;4985549;28;20277;-65
2023/03/06 00:17:00;;;;;;;1.50;1.40;;;18.60;38.00;;;;;;4998254;28;20686;-65
2023/03/06 00:19:26;;;;;;;1.50;1.40;;;18.60;38.00;;;;;;5000430;28;20233;-65
2023/03/06 00:21:52;;;;;;;1.57;1.47;;;18.60;38.00;;;;;;5008937;28;20235;-65
2023/03/06 00:24:17;;;;;;;1.53;1.43;;;18.50;38.00;;;;;;4989697;28;20565;-65
2023/03/06 00:26:43;;;;;;;1.30;1.20;;;18.60;38.00;;;;;;4997986;28;20508;-65
2023/03/06 00:29:08;;;;;;;1.30;1.20;;;18.60;38.00;;;;;;4987040;28;21045;-65
2023/03/06 00:31:34;;;;;;;1.60;1.50;;;18.50;37.90;;;;;;4998852;28;20219;-65
2023/03/06 00:34:00;;;;;;;1.30;1.20;;;18.50;37.90;;;;;;5001237;28;20242;-66
2023/03/06 00:36:26;;;;;;;1.37;1.27;;;18.50;37.90;;;;;;4996925;28;20458;-65
2023/03/06 00:38:51;;;;;;;1.30;1.20;;;18.50;37.90;;;;;;4988455;28;20722;-64
2023/03/06 00:41:17;;;;;;;1.47;1.37;;;18.50;37.90;;;;;;4996057;28;21168;-65
2023/03/06 00:43:42;;;;;;;1.30;1.20;;;18.50;37.90;;;;;;4988626;28;20378;-65
2023/03/06 00:46:08;;;;;;;1.30;1.20;;;18.50;37.90;;;;;;4995128;28;20252;-65
2023/03/06 00:48:33;;;;;;;1.40;1.30;;;18.50;37.90;;;;;;4993109;28;20260;-65
2023/03/06 00:50:59;;;;;;;1.80;1.70;;;18.50;37.90;;;;;;4998731;28;20254;-65
2023/03/06 00:53:25;;;;;;;1.40;1.30;;;18.50;37.90;;;;;;4983116;28;20264;-65
2023/03/06 00:55:51;;;;;;;2.03;1.40;;;18.50;37.90;;;;;;4995733;28;20231;-65
2023/03/06 00:58:16;;;;;;;1.50;1.40;;;18.50;37.90;;;;;;4998618;28;20230;-65
2023/03/06 01:00:42;;;;;;;1.40;1.30;;;18.50;37.90;;;;;;4992447;28;20224;-65
2023/03/06 01:03:08;;;;;;;1.60;1.50;;;18.50;37.90;;;;;;4990135;28;20227;-65
2023/03/06 01:05:35;;;;;;;3.73;1.20;;;18.50;37.90;;;;;;4995991;28;20430;-66
2023/03/06 01:08:01;;;;;;;1.30;1.20;;;18.50;37.90;;;;;;5001924;28;20572;-65
2023/03/06 01:10:27;;;;;;;1.57;1.47;;;18.50;37.90;;;;;;4993375;28;20445;-66
2023/03/06 01:12:53;;;;;;;1.43;1.33;;;18.50;37.90;;;;;;4998993;28;20342;-65
2023/03/06 01:15:20;;;;;;;1.20;1.10;;;18.50;38.00;;;;;;4987620;28;20255;-65
2023/03/06 01:17:45;;;;;;;1.73;1.20;;;18.50;37.90;;;;;;4995605;28;20437;-65
2023/03/06 01:20:15;;;;;;;1.20;1.10;;;18.50;37.90;;;;;;4996408;28;20451;-65
2023/03/06 01:22:41;;;;;;;1.40;1.30;;;18.50;37.90;;;;;;4998574;28;20235;-65
2023/03/06 01:25:07;;;;;;;1.50;1.40;;;18.50;37.90;;;;;;5001614;28;20423;-65
2023/03/06 01:27:33;;;;;;;1.37;1.27;;;18.50;37.90;;;;;;5002113;28;20701;-64
2023/03/06 01:29:58;;;;;;;1.30;1.20;;;18.50;37.90;;;;;;4997326;28;20550;-65
2023/03/06 01:32:24;;;;;;;1.40;1.30;;;18.50;37.90;;;;;;4994919;28;20224;-65
2023/03/06 01:34:49;;;;;;;1.40;1.30;;;18.50;37.90;;;;;;5000352;28;20235;-65
2023/03/06 01:37:15;;;;;;;1.30;1.20;;;18.50;37.90;;;;;;5001842;28;20247;-65
2023/03/06 01:39:41;;;;;;;1.20;1.10;;;18.50;37.90;;;;;;4985707;28;20224;-65
2023/03/06 01:42:06;;;;;;;1.40;1.30;;;18.50;37.90;;;;;;4987976;28;20334;-65
2023/03/06 01:44:32;;;;;;;1.30;1.20;;;18.50;37.90;;;;;;4993509;28;20234;-65
2023/03/06 01:47:01;;;;;;;1.27;1.17;;;18.50;37.90;;;;;;5022645;28;20254;-65
2023/03/06 01:49:39;;;;;;;1.30;1.20;;;18.50;37.90;;;;;;4996689;28;20571;-65
2023/03/06 01:52:13;;;;;;;1.23;1.13;;;18.50;37.90;;;;;;4992116;28;22382;-65
2023/03/06 01:54:46;;;;;;;1.20;1.10;;;18.50;37.90;;;;;;4983325;28;20480;-65
2023/03/06 01:57:15;;;;;;;1.43;1.33;;;18.50;37.90;;;;;;4979597;28;20573;-65
2023/03/06 01:59:42;;;;;;;1.30;1.20;;;18.50;37.90;;;;;;5000288;28;20461;-65
2023/03/06 02:02:11;;;;;;;1.20;1.10;;;18.50;37.90;;;;;;4999684;28;20799;-65
2023/03/06 02:04:39;;;;;;;1.50;1.40;;;18.50;37.90;;;;;;4983763;28;20445;-65
2023/03/06 02:07:05;;;;;;;1.33;1.23;;;18.50;37.90;;;;;;4999970;28;20427;-65
2023/03/06 02:09:32;;;;;;;1.43;1.30;;;18.50;37.90;;;;;;5001118;28;20432;-65
2023/03/06 02:11:59;;;;;;;1.30;1.20;;;18.50;37.90;;;;;;4999636;28;20536;-65
2023/03/06 02:14:25;;;;;;;2.10;1.40;;;18.50;37.90;;;;;;4991615;28;20921;-65
2023/03/06 02:16:51;;;;;;;1.30;1.20;;;18.50;37.90;;;;;;4994217;28;20943;-66
2023/03/06 02:19:47;;;;;;;1.40;1.30;;;18.50;37.90;;;;;;4983640;28;20311;-65
2023/03/06 02:22:13;;;;;;;1.10;1.00;;;18.50;37.90;;;;;;4990738;28;20263;-65
2023/03/06 02:24:48;;;;;;;1.27;1.17;;;18.50;37.90;;;;;;4995074;28;20461;-65
2023/03/06 02:27:16;;;;;;;1.30;1.20;;;18.50;37.90;;;;;;4983551;28;20572;-66
2023/03/06 02:29:42;;;;;;;1.30;1.20;;;18.50;37.90;;;;;;4993633;28;20470;-66
2023/03/06 02:32:09;;;;;;;1.33;1.23;;;18.50;37.90;;;;;;4992298;28;20457;-65
2023/03/06 02:34:37;;;;;;;1.10;1.00;;;18.50;37.90;;;;;;4998296;28;20477;-65
2023/03/06 02:37:07;;;;;;;1.40;1.30;;;18.50;37.90;;;;;;4990361;28;20455;-65
2023/03/06 02:39:37;;;;;;;1.30;1.20;;;18.50;37.90;;;;;;4991626;28;20434;-65
2023/03/06 02:42:03;;;;;;;0.90;0.90;;;18.50;37.90;;;;;;4993325;28;20465;-65
2023/03/06 02:44:29;;;;;;;1.40;1.30;;;18.50;37.90;;;;;;4993111;28;20462;-66
2023/03/06 02:46:55;;;;;;;1.30;1.20;;;18.50;37.90;;;;;;4991253;28;20290;-66
2023/03/06 02:49:20;;;;;;;1.50;1.40;;;18.50;37.90;;;;;;4997532;28;20460;-66
2023/03/06 02:51:46;;;;;;;1.73;1.40;;;18.50;37.90;;;;;;4997423;28;20227;-65
2023/03/06 02:54:11;;;;;;;1.30;1.20;;;18.50;37.90;;;;;;4997430;28;20239;-65
2023/03/06 02:56:37;;;;;;;1.27;1.17;;;18.50;38.00;;;;;;4988083;28;20235;-65
2023/03/06 02:59:02;;;;;;;1.10;1.00;;;18.50;37.90;;;;;;4991083;28;20216;-65
2023/03/06 03:01:28;;;;;;;1.30;1.20;;;18.50;37.90;;;;;;4998932;28;20215;-65
2023/03/06 03:03:54;;;;;;;1.40;1.30;;;18.50;37.90;;;;;;4994555;28;20220;-66
2023/03/06 03:06:19;;;;;;;1.23;1.13;;;18.50;37.90;;;;;;4979576;28;20314;-66
2023/03/06 03:08:45;;;;;;;1.37;1.27;;;18.50;37.90;;;;;;4993627;28;20705;-66
2023/03/06 03:11:11;;;;;;;1.33;1.23;;;18.50;37.90;;;;;;4998467;28;20253;-66
2023/03/06 03:13:36;;;;;;;1.20;1.10;;;18.40;37.80;;;;;;4999475;28;20231;-65
2023/03/06 03:16:07;;;;;;;1.20;1.10;;;18.50;37.90;;;;;;4997688;28;20509;-65
2023/03/06 03:18:34;;;;;;;1.20;1.10;;;18.50;37.90;;;;;;4995923;28;20746;-65
2023/03/06 03:21:00;;;;;;;1.47;1.37;;;18.50;37.90;;;;;;4998241;28;20445;-65
2023/03/06 03:23:26;;;;;;;1.60;1.50;;;18.50;37.90;;;;;;5000324;28;21035;-66
2023/03/06 03:25:51;;;;;;;1.40;1.30;;;18.40;37.80;;;;;;4999976;28;20560;-66
2023/03/06 03:28:17;;;;;;;1.20;1.10;;;18.40;38.60;;;;;;4994913;28;21010;-66
2023/03/06 03:30:43;;;;;;;1.27;1.17;;;18.40;37.80;;;;;;4999978;28;20235;-66
2023/03/06 03:33:09;;;;;;;1.50;1.40;;;18.40;37.80;;;;;;4997277;28;20535;-65
2023/03/06 03:35:35;;;;;;;1.20;1.10;;;18.40;37.80;;;;;;4995586;28;20688;-66
2023/03/06 03:38:01;;;;;;;1.30;1.20;;;18.40;37.80;;;;;;4988073;28;20493;-66
2023/03/06 03:40:27;;;;;;;1.30;1.20;;;18.40;37.80;;;;;;4997368;28;20687;-66
2023/03/06 03:42:52;;;;;;;1.40;1.30;;;18.40;37.80;;;;;;4998467;28;20475;-65
2023/03/06 03:45:18;;;;;;;1.50;1.20;;;18.40;37.80;;;;;;4994182;28;20239;-66
2023/03/06 03:47:43;;;;;;;1.40;1.30;;;18.40;37.80;;;;;;4995600;28;20251;-66
2023/03/06 03:50:10;;;;;;;1.30;1.20;;;18.40;37.80;;;;;;4991388;28;20231;-66
2023/03/06 03:52:36;;;;;;;1.40;1.30;;;18.40;37.80;;;;;;4998744;28;20546;-66
2023/03/06 03:55:02;;;;;;;1.40;1.30;;;18.40;37.80;;;;;;4985605;28;20451;-66
2023/03/06 03:57:28;;;;;;;1.40;1.30;;;18.50;37.90;;;;;;4992309;28;20476;-65
2023/03/06 03:59:54;;;;;;;1.37;1.27;;;18.40;37.80;;;;;;4981939;28;21260;-66
2023/03/06 04:02:20;;;;;;;1.37;1.27;;;18.40;37.80;;;;;;4999494;28;20334;-66
2023/03/06 04:04:46;;;;;;;1.30;1.20;;;18.40;37.80;;;;;;4990699;28;20220;-65
2023/03/06 04:07:12;;;;;;;1.40;1.30;;;18.50;37.90;;;;;;4987190;28;20937;-66
2023/03/06 04:09:37;;;;;;;1.20;1.10;;;18.40;37.80;;;;;;5000489;28;20449;-66
2023/03/06 04:12:03;;;;;;;1.50;1.20;;;18.50;38.00;;;;;;4988308;28;20224;-66
2023/03/06 04:14:29;;;;;;;1.50;1.40;;;18.40;37.80;;;;;;4993082;28;20228;-66
2023/03/06 04:16:54;;;;;;;1.67;1.47;;;18.40;37.80;;;;;;4994904;28;20234;-66
2023/03/06 04:19:20;;;;;;;1.40;1.30;;;18.40;37.80;;;;;;4986394;28;20595;-66
2023/03/06 04:21:45;;;;;;;1.30;1.20;;;18.40;37.80;;;;;;4985186;28;20220;-66
2023/03/06 04:24:11;;;;;;;1.27;1.17;;;18.40;37.80;;;;;;4990774;28;20229;-66
2023/03/06 04:26:36;;;;;;;1.50;1.40;;;18.50;37.90;;;;;;5003438;28;20224;-66
2023/03/06 04:29:02;;;;;;;1.50;1.40;;;18.40;37.80;;;;;;5002028;28;20224;-66
2023/03/06 04:31:28;;;;;;;1.50;1.40;;;18.40;37.80;;;;;;4999139;28;20223;-66
2023/03/06 04:33:53;;;;;;;1.50;1.40;;;18.40;37.80;;;;;;4998651;28;20375;-65
2023/03/06 04:36:29;;;;;;;1.33;1.23;;;18.40;37.90;;;;;;4995980;28;20311;-66
2023/03/06 04:38:55;;;;;;;1.83;1.73;;;18.40;37.80;;;;;;5005903;28;20310;-66
2023/03/06 04:41:21;;;;;;;1.60;1.50;;;18.40;37.80;;;;;;4998325;28;21023;-65
2023/03/06 04:43:46;;;;;;;1.67;1.57;;;18.40;37.80;;;;;;4997827;28;20262;-66
2023/03/06 04:46:12;;;;;;;1.87;1.77;;;18.40;37.80;;;;;;5000604;28;20828;-65
2023/03/06 04:48:37;;;;;;;1.60;1.50;;;18.40;37.80;;;;;;4997633;28;20721;-66
2023/03/06 04:51:03;;;;;;;1.47;1.37;;;18.50;37.90;;;;;;4995880;28;20287;-66
2023/03/06 04:53:29;;;;;;;1.50;1.40;;;18.40;37.80;;;;;;4993927;28;20326;-65
2023/03/06 04:55:54;;;;;;;1.53;1.43;;;18.50;38.00;;;;;;5003350;28;20223;-66
2023/03/06 04:58:20;;;;;;;2.10;2.00;;;18.50;37.90;;;;;;4995384;28;20231;-66
2023/03/06 05:00:45;;;;;;;1.40;1.30;;;18.50;37.90;;;;;;4987634;28;20221;-66
2023/03/06 05:03:13;;;;;;;1.50;1.40;;;18.50;37.90;;;;;;4982634;28;20219;-66
2023/03/06 05:05:38;;;;;;;2.00;1.90;;;18.50;37.90;;;;;;4999441;28;20224;-65
2023/03/06 05:08:04;;;;;;;1.90;1.80;;;18.50;37.90;;;;;;4996078;28;20551;-66
2023/03/06 05:10:30;;;;;;;1.60;1.50;;;18.50;37.90;;;;;;4995725;28;20262;-65
2023/03/06 05:12:55;;;;;;;1.50;1.40;;;18.50;37.90;;;;;;5002706;28;20309;-66
2023/03/06 05:15:21;;;;;;;1.60;1.50;;;18.50;37.90;;;;;;4990248;28;20219;-66
2023/03/06 05:17:46;;;;;;;1.60;1.50;;;18.50;37.90;;;;;;5002766;28;20219;-66
2023/03/06 05:20:13;;;;;;;1.60;1.50;;;18.50;37.90;;;;;;5000578;28;20219;-66
2023/03/06 05:22:39;;;;;;;1.63;1.53;;;18.50;37.90;;;;;;5002841;28;20293;-66
2023/03/06 05:25:05;;;;;;;1.67;1.57;;;18.50;37.90;;;;;;4989126;28;20464;-66
2023/03/06 05:27:32;;;;;;;1.60;1.50;;;18.50;37.90;;;;;;5001810;28;20312;-66
2023/03/06 05:29:57;;;;;;;1.90;1.80;;;18.50;37.90;;;;;;4995511;28;20440;-65
2023/03/06 05:32:23;;;;;;;1.57;1.47;;;18.50;37.90;;;;;;4988653;28;20480;-66
2023/03/06 05:34:49;;;;;;;1.70;1.60;;;18.50;37.90;;;;;;4984175;28;20235;-63
2023/03/06 05:37:14;;;;;;;1.60;1.50;;;18.60;38.00;;;;;;4989040;28;20216;-65
2023/03/06 05:39:40;;;;;;;1.50;1.40;;;18.50;37.90;;;;;;4994555;28;20232;-65
2023/03/06 05:42:06;;;;;;;1.63;1.53;;;18.50;37.90;;;;;;4981687;28;20289;-66
2023/03/06 05:44:33;;;;;;;1.70;1.60;;;18.50;37.90;;;;;;4985859;28;20663;-66
2023/03/06 05:46:59;;;;;;;1.50;1.40;;;18.50;37.90;;;;;;4999808;28;20245;-66
2023/03/06 05:49:25;;;;;;;1.47;1.37;;;18.50;37.90;;;;;;4985734;28;20432;-66
2023/03/06 05:51:50;;;;;;;1.70;1.60;;;18.50;37.90;;;;;;4991484;28;20468;-66
2023/03/06 05:54:16;;;;;;;2.00;1.90;;;18.50;37.90;;;;;;4989999;28;20228;-66
2023/03/06 05:56:42;;;;;;;1.80;1.70;;;18.50;37.90;;;;;;4995499;28;20220;-66
2023/03/06 05:59:07;;;;;;;1.50;1.40;;;18.50;37.90;;;;;;4989092;28;20232;-66
2023/03/06 06:01:33;;;;;;;1.40;1.30;;;18.50;37.90;;;;;;4987548;28;20610;-68
2023/03/06 06:03:58;;;;;;;1.70;1.60;;;18.60;38.00;;;;;;4979844;28;20238;-68
2023/03/06 06:06:24;;;;;;;1.93;1.70;;;18.60;38.00;;;;;;4990575;28;20227;-68
2023/03/06 06:08:49;;;;;;;1.70;1.60;;;18.60;38.00;;;;;;4990718;28;20232;-68
2023/03/06 06:11:17;;;;;;;1.73;1.63;;;18.50;37.90;;;;;;4983922;28;20301;-69
2023/03/06 06:13:42;;;;;;;1.67;1.57;;;18.50;37.90;;;;;;4994914;28;20403;-68
2023/03/06 06:16:17;;;;;;;2.63;1.90;;;18.50;37.90;;;;;;4989355;28;20470;-69
2023/03/06 06:18:44;;;;;;;1.63;1.53;;;18.60;38.00;;;;;;4978278;28;20219;-68
2023/03/06 06:21:11;;;;;;;1.80;1.70;;;18.50;37.90;;;;;;4982071;28;20466;-68
2023/03/06 06:23:36;;;;;;;1.63;1.53;;;18.50;37.90;;;;;;4990394;28;20469;-71
2023/03/06 06:26:05;;;;;;;1.70;1.60;;;18.60;38.00;;;;;;4989117;28;20475;-67
2023/03/06 06:28:31;;;;;;;3.10;1.80;;;18.60;38.00;;;;;;4987492;28;20224;-68
2023/03/06 06:30:56;;;;;;;1.60;1.50;;;18.60;38.00;;;;;;4984776;28;20592;-69
2023/03/06 06:33:22;;;;;;;2.40;2.20;;;18.60;38.00;;;;;;4986998;28;20611;-68
2023/03/06 06:35:48;;;;;;;1.70;1.60;;;18.60;38.00;;;;;;4988835;28;20223;-68
2023/03/06 06:38:14;;;;;;;2.13;2.03;;;18.60;38.00;;;;;;4984670;28;20486;-68
2023/03/06 06:40:39;;;;;;;2.30;1.80;;;18.60;38.00;;;;;;4980058;28;20235;-68
2023/03/06 06:43:05;;;;;;;1.90;1.80;;;18.60;38.00;;;;;;4986081;28;20228;-69
2023/03/06 06:45:30;;;;;;;1.70;1.60;;;18.60;38.00;;;;;;4975476;28;20236;-68
2023/03/06 06:47:56;;;;;;;1.83;1.73;;;18.50;37.90;;;;;;4979540;28;20240;-68
2023/03/06 06:50:21;;;;;;;1.87;1.77;;;18.50;37.90;;;;;;4984218;28;20861;-66
2023/03/06 06:52:47;;;;;;;1.90;1.80;;;18.50;37.90;;;;;;4986693;28;20227;-68
2023/03/06 06:55:13;;;;;;;1.90;1.80;;;18.50;37.90;;;;;;4976033;28;20216;-69
2023/03/06 06:57:40;;;;;;;3.20;2.30;;;18.50;37.90;;;;;;4998595;28;20223;-67
2023/03/06 07:00:06;;;;;;;2.10;2.00;;;18.60;38.00;;;;;;4981361;28;20239;-69
2023/03/06 07:02:32;;;;;;;2.00;1.90;;;18.50;37.90;;;;;;4997290;28;20430;-68
2023/03/06 07:04:58;;;;;;;2.20;1.97;;;18.50;37.90;;;;;;4987697;28;20432;-67
2023/03/06 07:07:23;;;;;;;2.47;1.70;;;18.50;37.90;;;;;;4987687;28;20238;-68
2023/03/06 07:09:49;;;;;;;1.80;1.70;;;18.50;37.90;;;;;;4991322;28;20242;-67
2023/03/06 07:12:15;;;;;;;1.90;1.80;;;18.50;37.90;;;;;;4994961;28;20235;-67
2023/03/06 07:14:41;;;;;;;1.90;1.80;;;18.50;37.90;;;;;;4989208;28;20616;-67
2023/03/06 07:17:09;;;;;;;2.00;1.90;;;18.50;37.90;;;;;;4997417;28;20361;-67
2023/03/06 07:19:35;;;;;;;1.97;1.87;;;18.50;37.90;;;;;;4999614;28;20431;-67
2023/03/06 07:22:01;;;;;;;2.03;1.93;;;18.50;37.90;;;;;;4998148;28;20437;-67
2023/03/06 07:24:27;;;;;;;4.20;1.83;;;18.50;38.60;;;;;;4995625;28;20442;-67
2023/03/06 07:26:53;;;;;;;2.07;1.90;;;18.50;37.90;;;;;;4997850;28;20223;-66
2023/03/06 07:29:18;;;;;;;2.00;1.90;;;18.50;37.90;;;;;;4997327;28;20468;-67
2023/03/06 07:31:44;;;;;;;2.80;1.87;;;18.50;37.90;;;;;;5002474;28;20246;-68
2023/03/06 07:34:12;;;;;;;1.70;1.60;;;18.50;38.70;;;;;;4996541;28;20246;-67
2023/03/06 07:36:39;;;;;;;2.00;1.90;;;18.50;37.90;;;;;;4999654;28;20227;-67
2023/03/06 07:39:08;;;;;;;1.70;1.60;;;18.50;38.00;;;;;;5000276;28;20552;-68
2023/03/06 07:41:33;;;;;;;2.20;2.00;;;18.50;37.90;;;;;;4993132;28;20461;-67
2023/03/06 07:43:59;;;;;;;2.00;1.90;;;18.50;37.90;;;;;;4996717;28;20824;-67
2023/03/06 07:46:25;;;;;;;1.90;1.80;;;18.50;37.90;;;;;;4996734;28;20675;-67
2023/03/06 07:48:50;;;;;;;2.00;1.90;;;18.50;37.90;;;;;;4997646;28;20231;-68
2023/03/06 07:51:18;;;;;;;1.90;1.80;;;18.50;37.90;;;;;;4998097;28;20220;-68
2023/03/06 07:53:45;;;;;;;2.00;1.90;;;18.50;37.90;;;;;;5002462;28;20251;-67
2023/03/06 07:56:11;;;;;;;2.00;1.90;;;18.50;37.90;;;;;;5000939;28;20494;-67
2023/03/06 07:58:39;;;;;;;1.60;1.50;;;18.50;37.90;;;;;;4990257;28;20464;-66
2023/03/06 08:01:07;;;;;;;2.00;1.90;;;18.50;37.90;;;;;;4996084;28;20578;-66
2023/03/06 08:03:33;;;;;;;2.60;2.40;;;18.50;37.90;;;;;;4994396;28;20432;-66
2023/03/06 08:06:12;;;;;;;2.00;1.90;;;18.50;37.90;;;;;;5000967;28;20429;-67
2023/03/06 08:08:41;;;;;;;2.17;2.07;;;18.50;37.90;;;;;;4988706;28;20228;-67
2023/03/06 08:11:09;;;;;;;1.90;1.80;;;18.50;37.90;;;;;;4990791;28;20453;-67
2023/03/06 08:13:35;;;;;;;2.00;1.90;;;18.50;37.90;;;;;;5000775;28;21669;-67
2023/03/06 08:16:01;;;;;;;2.50;2.30;;;18.50;37.90;;;;;;4997321;28;20428;-67
2023/03/06 08:18:28;;;;;;;2.73;2.10;;;18.50;37.90;;;;;;5002821;28;20437;-67
2023/03/06 08:21:12;;;;;;;1.93;1.83;;;18.50;37.90;;;;;;5001920;28;20427;-67
2023/03/06 08:23:38;;;;;;;2.00;1.90;;;18.50;37.90;;;;;;4997541;28;21055;-67
2023/03/06 08:26:11;;;;;;;2.23;2.13;;;18.50;37.90;;;;;;4996276;28;20453;-67
2023/03/06 08:28:36;;;;;;;2.33;2.20;;;18.50;37.90;;;;;;4998628;28;20439;-67
2023/03/06 08:31:22;;;;;;;2.07;1.97;;;18.50;37.90;;;;;;4994692;28;20978;-67
2023/03/06 08:33:48;;;;;;;2.03;1.93;;;18.50;37.90;;;;;;4991292;28;20325;-67
2023/03/06 08:36:14;;;;;;;1.80;1.70;;;18.50;37.90;;;;;;4994839;28;21004;-67
2023/03/06 08:38:39;;;;;;;2.27;2.07;;;18.50;37.90;;;;;;4998662;28;20865;-67
2023/03/06 08:41:05;;;;;;;2.60;2.50;;;18.50;37.90;;;;;;4988225;28;20659;-67
2023/03/06 08:43:30;;;;;;;2.10;2.00;;;18.50;37.90;;;;;;4990501;28;20378;-66
2023/03/06 08:45:57;;;;;;;2.10;2.00;;;18.50;37.90;;;;;;5003456;28;20235;-68
2023/03/06 08:48:23;;;;;;;2.70;2.50;;;18.50;37.90;;;;;;4994161;28;20277;-67
2023/03/06 08:50:49;;;;;;;2.60;2.40;;;18.50;37.90;;;;;;4990616;28;23530;-67
2023/03/06 08:53:15;;;;;;;2.33;2.23;;;18.50;37.90;;;;;;4993655;28;20823;-67
2023/03/06 08:55:41;;;;;;;2.57;2.47;;;18.50;37.90;;;;;;4986714;28;20298;-67
2023/03/06 08:58:07;;;;;;;2.90;2.70;;;18.50;37.90;;;;;;4995693;28;20896;-67
2023/03/06 09:00:34;;;;;;;2.77;2.53;;;18.50;37.90;;;;;;4989389;28;20230;-67
2023/03/06 09:02:59;;;;;;;2.30;2.10;;;18.50;37.90;;;;;;4995768;28;20452;-66
2023/03/06 09:05:25;;;;;;;2.37;2.27;;;18.50;37.90;;;;;;4999455;28;20434;-67
2023/03/06 09:07:51;;;;;;;2.90;2.70;;;18.50;37.90;;;;;;4983815;28;20220;-67
2023/03/06 09:10:20;;;;;;;2.57;2.40;;;18.50;37.90;;;;;;4985133;28;20218;-66
2023/03/06 09:12:45;;;;;;;2.30;2.20;;;18.50;38.20;;;;;;4999980;28;20223;-67
2023/03/06 09:15:12;;;;;;;2.50;2.30;;;18.50;37.90;;;;;;4995460;28;20469;-67
2023/03/06 09:17:38;;;;;;;2.47;2.37;;;18.50;37.90;;;;;;4997591;28;20243;-67
2023/03/06 09:20:08;;;;;;;2.20;2.10;;;18.50;37.90;;;;;;4991756;28;20824;-67
2023/03/06 09:22:33;;;;;;;3.10;2.70;;;18.50;37.90;;;;;;5000579;28;20536;-67
2023/03/06 09:24:59;;;;;;;2.27;2.17;;;18.50;37.90;;;;;;4995036;28;20855;-66
2023/03/06 09:27:27;;;;;;;2.53;2.40;;;18.50;37.90;;;;;;4986851;28;20223;-67
2023/03/06 09:29:53;;;;;;;2.43;2.33;;;18.50;37.90;;;;;;4998040;28;20220;-67
2023/03/06 09:32:19;;;;;;;2.23;2.13;;;18.50;37.90;;;;;;5004981;28;20442;-67
2023/03/06 09:34:45;;;;;;;2.50;2.40;;;18.50;37.90;;;;;;4999286;28;20427;-67
2023/03/06 09:37:10;;;;;;;2.30;2.20;;;18.50;38.00;;;;;;4996976;28;20455;-67
2023/03/06 09:39:36;;;;;;;2.30;2.10;;;18.50;37.90;;;;;;4991596;28;20230;-67
2023/03/06 09:42:04;;;;;;;2.20;2.10;;;18.50;37.90;;;;;;5002939;28;20223;-67
2023/03/06 09:44:36;;;;;;;2.13;2.03;;;18.50;38.60;;;;;;4987294;28;20762;-68
2023/03/06 09:47:27;;;;;;;2.40;2.23;;;18.50;37.90;;;;;;4997544;28;20440;-68
2023/03/06 09:50:20;;;;;;;2.27;2.17;;;18.50;37.90;;;;;;4995598;28;21872;-66
2023/03/06 09:53:02;;;;;;;2.30;2.20;;;18.50;37.90;;;;;;4991848;28;20451;-67
2023/03/06 09:55:31;;;;;;;2.60;2.40;;;18.50;37.90;;;;;;5003375;28;20439;-67
2023/03/06 09:58:03;;;;;;;2.20;2.10;;;18.50;37.90;;;;;;4991711;28;20457;-66
2023/03/06 10:00:33;;;;;;;1.90;1.80;;;18.50;37.90;;;;;;4996321;28;20968;-66
2023/03/06 10:03:23;;;;;;;2.40;2.30;;;18.50;37.90;;;;;;4989531;28;20437;-66
2023/03/06 10:06:13;;;;;;;2.67;2.47;;;18.50;37.90;;;;;;4996742;28;20451;-65
2023/03/06 10:08:51;;;;;;;2.03;1.93;;;18.50;37.90;;;;;;4999533;28;20459;-68
2023/03/06 10:11:23;;;;;;;2.40;2.30;;;18.50;37.90;;;;;;4999321;28;20428;-68
2023/03/06 10:13:52;;;;;;;2.73;2.53;;;18.50;37.90;;;;;;4999755;28;20473;-67
2023/03/06 10:16:26;;;;;;;2.17;2.07;;;18.50;37.90;;;;;;5001076;28;20479;-67
2023/03/06 10:18:54;;;;;;;2.33;2.23;;;18.50;38.00;;;;;;4978739;28;21364;-66
2023/03/06 10:21:28;;;;;;;2.53;2.43;;;18.50;37.90;;;;;;4994392;28;20468;-67
2023/03/06 10:24:03;;;;;;;2.33;2.23;;;18.50;37.90;;;;;;5002451;28;20427;-67
2023/03/06 10:26:38;;;;;;;2.00;1.90;;;18.50;37.90;;;;;;5003804;28;20506;-67
2023/03/06 10:29:09;;;;;;;2.00;1.90;;;18.50;37.90;;;;;;5001434;28;20435;-66
2023/03/06 10:31:37;;;;;;;2.43;2.23;;;18.50;37.90;;;;;;4994711;28;20435;-67
2023/03/06 10:34:17;;;;;;;2.40;2.30;;;18.50;37.90;;;;;;5002603;28;21244;-67
2023/03/06 10:36:43;;;;;;;2.47;2.37;;;18.50;38.00;;;;;;5003354;28;20485;-66
2023/03/06 10:39:14;;;;;;;2.30;2.20;;;18.50;37.90;;;;;;4998264;28;20423;-67
2023/03/06 10:41:40;;;;;;;2.03;1.93;;;18.50;37.90;;;;;;4999603;28;20713;-67
2023/03/06 10:44:06;;;;;;;2.20;2.10;;;18.50;37.90;;;;;;4993020;28;20457;-66
2023/03/06 10:46:38;;;;;;;2.07;1.97;;;18.50;37.90;;;;;;5001994;28;20271;-67
2023/03/06 10:49:13;;;;;;;2.07;1.97;;;18.50;38.60;;;;;;5001204;28;20816;-67
2023/03/06 10:51:53;;;;;;;2.10;2.00;;;18.50;37.90;;;;;;4995264;28;20441;-67
2023/03/06 10:54:19;;;;;;;2.10;2.00;;;18.50;37.90;;;;;;4991937;28;20451;-66
2023/03/06 10:56:46;;;;;;;2.40;2.30;;;18.50;37.90;;;;;;4996169;28;20442;-66
2023/03/06 10:59:17;;;;;;;2.70;2.60;;;18.50;37.90;;;;;;5001370;28;20227;-67
2023/03/06 11:01:44;;;;;;;2.00;1.90;;;18.50;37.90;;;;;;4994280;28;20447;-67
2023/03/06 11:04:27;;;;;;;2.00;1.90;;;18.50;37.90;;;;;;4990052;28;20464;-68
2023/03/06 11:07:17;;;;;;;2.00;1.90;;;18.50;37.90;;;;;;5001646;28;20514;-67
2023/03/06 11:10:02;;;;;;;2.33;2.23;;;18.50;37.90;;;;;;4984799;28;20496;-67
2023/03/06 11:12:36;;;;;;;2.37;2.27;;;18.50;37.90;;;;;;4999362;28;20416;-67
2023/03/06 11:15:13;;;;;;;2.30;2.20;;;18.50;37.90;;;;;;4994415;28;20460;-67
2023/03/06 11:17:53;;;;;;;1.97;1.87;;;18.50;37.90;;;;;;4998280;28;20439;-67
2023/03/06 11:20:38;;;;;;;2.00;1.90;;;18.50;37.90;;;;;;4994867;28;20516;-67
2023/03/06 11:23:28;;;;;;;2.10;2.00;;;18.50;37.90;;;;;;5027596;28;22039;-66
2023/03/06 11:26:09;;;;;;;2.60;2.50;;;18.50;38.00;;;;;;4987556;28;20456;-67
2023/03/06 11:28:44;;;;;;;2.00;1.90;;;18.50;37.90;;;;;;4998765;28;20443;-67
2023/03/06 11:31:16;;;;;;;2.17;2.07;;;18.50;37.90;;;;;;4996095;28;20797;-67
2023/03/06 11:33:46;;;;;;;2.10;2.00;;;18.50;37.90;;;;;;4996561;28;20467;-67
2023/03/06 11:36:26;;;;;;;2.03;1.90;;;18.50;37.90;;;;;;4998510;28;20548;-67
2023/03/06 11:38:53;;;;;;;2.20;2.10;;;18.50;37.90;;;;;;4997367;28;20450;-67
2023/03/06 11:42:06;;;;;;;2.27;1.90;;;18.50;38.70;;;;;;4991292;28;20445;-66
2023/03/06 11:44:50;;;;;;;2.10;2.00;;;18.50;37.90;;;;;;4994638;28;20830;-67
2023/03/06 11:47:22;;;;;;;2.50;2.33;;;18.50;37.90;;;;;;4991377;28;20473;-66
2023/03/06 11:50:05;;;;;;;2.13;2.00;;;18.50;38.00;;;;;;4994477;28;20464;-67
2023/03/06 11:52:46;;;;;;;1.90;1.80;;;18.50;38.00;;;;;;4995986;28;20435;-67
2023/03/06 11:55:18;;;;;;;1.77;1.67;;;18.50;37.90;;;;;;4992954;28;20563;-66
2023/03/06 11:58:16;;;;;;;2.73;2.63;;;18.50;37.90;;;;;;4987101;28;21041;-65
2023/03/06 12:00:52;;;;;;;2.03;1.93;;;18.50;37.90;;;;;;4988839;28;20943;-67
2023/03/06 12:03:37;;;;;;;2.03;1.93;;;18.50;37.90;;;;;;4997684;28;20447;-67
2023/03/06 12:06:39;;;;;;;2.10;2.00;;;18.50;37.90;;;;;;4988597;28;20477;-67
2023/03/06 12:09:23;;;;;;;2.03;1.93;;;18.50;37.90;;;;;;4976730;28;20451;-66
2023/03/06 12:12:07;;;;;;;2.13;2.03;;;18.40;37.80;;;;;;4994249;28;20510;-66
2023/03/06 12:14:54;;;;;;;2.33;2.23;;;18.40;37.80;;;;;;4996054;28;20456;-67
2023/03/06 12:17:32;;;;;;;2.10;2.00;;;18.50;37.90;;;;;;4995661;28;20445;-66
2023/03/06 12:20:37;;;;;;;1.83;1.73;;;18.40;37.80;;;;;;4999888;28;20463;-66
2023/03/06 12:23:11;;;;;;;2.10;2.00;;;18.40;37.80;;;;;;4998969;28;20471;-66
2023/03/06 12:25:43;;;;;;;2.17;2.07;;;18.40;37.80;;;;;;4979772;28;20443;-67
2023/03/06 12:28:15;;;;;;;2.43;2.33;;;18.40;37.80;;;;;;5001886;28;20454;-66
2023/03/06 12:31:02;;;;;;;2.27;2.07;;;18.50;38.00;;;;;;4992324;28;20441;-67
2023/03/06 12:33:39;;;;;;;2.17;2.07;;;18.50;37.90;;;;;;4996823;28;20660;-66
2023/03/06 12:36:27;;;;;;;1.80;1.70;;;18.40;37.80;;;;;;4996874;28;20449;-66
2023/03/06 12:39:08;;;;;;;1.83;1.73;;;18.40;37.80;;;;;;4994913;28;20450;-66
2023/03/06 12:41:52;;;;;;;2.17;2.07;;;18.40;37.80;;;;;;4989117;28;20470;-66
2023/03/06 12:44:26;;;;;;;2.43;2.33;;;18.50;37.90;;;;;;4997878;28;20424;-67
2023/03/06 12:47:06;;;;;;;2.47;2.37;;;18.40;37.80;;;;;;5000621;28;20475;-66
2023/03/06 12:49:37;;;;;;;1.80;1.70;;;18.40;37.80;;;;;;4995391;28;20439;-67
2023/03/06 12:52:05;;;;;;;2.20;2.10;;;18.50;37.90;;;;;;5004072;28;20453;-67
2023/03/06 12:54:36;;;;;;;2.10;2.00;;;18.40;37.80;;;;;;4987024;28;20440;-67
2023/03/06 12:57:05;;;;;;;2.40;2.27;;;18.50;37.90;;;;;;4989270;28;20436;-67
2023/03/06 12:59:47;;;;;;;2.00;1.90;;;18.40;37.80;;;;;;4984229;28;20454;-67